createdAt,value
2019-05-28T00:02:04.538Z,18.77
2019-05-28T00:04:33.021Z,18.67
2019-05-28T00:07:01.528Z,18.59
2019-05-28T00:09:30.062Z,18.48
2019-05-28T00:11:59.098Z,18.41
2019-05-28T00:14:27.625Z,18.46
2019-05-28T00:16:56.407Z,18.52
2019-05-28T00:19:24.947Z,18.58
2019-05-28T00:21:53.458Z,18.65
2019-05-28T00:24:21.960Z,18.70
2019-05-28T00:26:50.766Z,18.75
2019-05-28T00:29:19.642Z,18.70
2019-05-28T00:31:48.157Z,18.66
2019-05-28T00:34:16.657Z,18.62
2019-05-28T00:36:45.149Z,18.68
2019-05-28T00:39:13.685Z,18.78
2019-05-28T00:41:42.189Z,18.84
2019-05-28T00:44:10.762Z,18.88
2019-05-28T00:46:39.253Z,18.85
2019-05-28T00:49:08.249Z,18.52
2019-05-28T00:51:36.754Z,18.42
2019-05-28T00:54:05.248Z,18.58
2019-05-28T00:56:33.766Z,18.67
2019-05-28T00:59:02.269Z,18.65
2019-05-28T01:01:30.862Z,18.61
2019-05-28T01:03:59.358Z,18.60
2019-05-28T01:06:27.880Z,18.66
2019-05-28T01:08:56.364Z,18.71
2019-05-28T01:11:24.881Z,18.68
2019-05-28T01:13:53.658Z,18.60
2019-05-28T01:16:22.162Z,18.68
2019-05-28T01:18:50.684Z,18.76
2019-05-28T01:21:19.205Z,18.80
2019-05-28T01:23:47.727Z,18.76
2019-05-28T01:26:16.230Z,18.71
2019-05-28T01:28:44.726Z,18.64
2019-05-28T01:31:13.241Z,18.64
2019-05-28T01:33:41.749Z,18.59
2019-05-28T01:36:10.731Z,18.58
2019-05-28T01:38:39.256Z,18.60
2019-05-28T01:41:08.022Z,18.60
2019-05-28T01:43:36.517Z,18.60
2019-05-28T01:46:05.022Z,18.03
2019-05-28T01:48:33.849Z,17.89
2019-05-28T01:51:02.361Z,17.86
2019-05-28T01:53:30.836Z,17.69
2019-05-28T01:55:59.332Z,17.35
2019-05-28T01:58:27.836Z,17.28
2019-05-28T02:01:11.642Z,17.51
2019-05-28T02:03:26.568Z,17.80
2019-05-28T02:05:55.099Z,17.79
2019-05-28T02:08:23.587Z,17.72
2019-05-28T02:10:52.169Z,17.89
2019-05-28T02:13:20.675Z,18.05
2019-05-28T02:15:49.194Z,18.10
2019-05-28T02:18:17.724Z,18.17
2019-05-28T02:20:46.246Z,18.23
2019-05-28T02:23:14.802Z,18.27
2019-05-28T02:25:43.315Z,18.31
2019-05-28T02:28:11.850Z,18.34
2019-05-28T02:30:40.375Z,18.39
2019-05-28T02:33:08.899Z,18.41
2019-05-28T02:35:37.403Z,18.41
2019-05-28T02:38:05.927Z,18.43
2019-05-28T02:40:34.430Z,18.45
2019-05-28T02:43:02.969Z,18.46
2019-05-28T02:45:31.472Z,18.42
2019-05-28T02:48:00.658Z,18.41
2019-05-28T02:51:02.390Z,18.36
2019-05-28T02:53:31.406Z,18.33
2019-05-28T02:56:00.509Z,18.25
2019-05-28T02:58:33.721Z,18.19
2019-05-28T03:01:02.859Z,18.12
2019-05-28T03:03:31.631Z,18.05
2019-05-28T03:06:00.555Z,17.82
2019-05-28T03:08:32.804Z,17.70
2019-05-28T03:11:03.922Z,17.51
2019-05-28T03:13:32.298Z,17.06
2019-05-28T03:16:02.216Z,16.87
2019-05-28T03:18:31.026Z,16.67
2019-05-28T03:21:00.272Z,16.55
2019-05-28T03:23:28.797Z,16.46
2019-05-28T03:25:57.362Z,16.33
2019-05-28T03:28:25.957Z,16.51
2019-05-28T03:30:54.463Z,16.65
2019-05-28T03:33:23.001Z,16.61
2019-05-28T03:35:52.172Z,16.70
2019-05-28T03:38:20.720Z,16.89
2019-05-28T03:40:49.554Z,16.85
2019-05-28T03:43:18.081Z,16.88
2019-05-28T03:45:46.583Z,16.88
2019-05-28T03:48:15.120Z,16.94
2019-05-28T03:50:43.618Z,17.06
2019-05-28T03:53:12.165Z,16.95
2019-05-28T03:55:40.703Z,16.92
2019-05-28T03:58:09.285Z,16.94
2019-05-28T04:00:37.813Z,16.84
2019-05-28T04:03:06.365Z,16.91
2019-05-28T04:05:38.072Z,16.42
2019-05-28T04:08:06.970Z,15.91
2019-05-28T04:10:35.502Z,15.97
2019-05-28T04:13:04.046Z,15.78
2019-05-28T04:15:35.199Z,15.47
2019-05-28T04:18:03.301Z,15.75
2019-05-28T04:20:32.162Z,16.37
2019-05-28T04:23:00.698Z,16.71
2019-05-28T04:25:29.224Z,16.88
2019-05-28T04:27:57.805Z,17.00
2019-05-28T04:30:26.317Z,16.68
2019-05-28T04:32:54.848Z,15.83
2019-05-28T04:35:23.387Z,16.18
2019-05-28T04:37:51.883Z,16.64
2019-05-28T04:40:20.465Z,16.73
2019-05-28T04:42:48.982Z,16.99
2019-05-28T04:45:17.506Z,17.14
2019-05-28T04:47:46.372Z,17.23
2019-05-28T04:50:14.956Z,17.24
2019-05-28T04:52:43.517Z,17.11
2019-05-28T04:55:12.046Z,17.09
2019-05-28T04:57:41.111Z,17.03
2019-05-28T05:00:09.688Z,17.03
2019-05-28T05:02:38.181Z,17.04
2019-05-28T05:05:06.726Z,17.06
2019-05-28T05:07:35.227Z,17.08
2019-05-28T05:10:03.733Z,17.14
2019-05-28T05:12:32.370Z,17.14
2019-05-28T05:15:00.895Z,17.06
2019-05-28T05:17:29.418Z,17.02
2019-05-28T05:19:57.968Z,17.05
2019-05-28T05:22:26.777Z,16.99
2019-05-28T05:24:55.309Z,16.94
2019-05-28T05:27:24.303Z,16.89
2019-05-28T05:29:52.826Z,16.86
2019-05-28T05:32:21.620Z,16.88
2019-05-28T05:34:50.129Z,17.00
2019-05-28T05:37:18.768Z,17.08
2019-05-28T05:39:49.146Z,17.19
2019-05-28T05:42:18.537Z,17.22
2019-05-28T05:44:47.067Z,17.02
2019-05-28T05:47:15.567Z,17.12
2019-05-28T05:49:44.066Z,17.12
2019-05-28T05:52:12.672Z,17.14
2019-05-28T05:54:41.149Z,17.15
2019-05-28T05:57:09.673Z,17.29
2019-05-28T05:59:38.251Z,17.41
2019-05-28T06:02:08.062Z,17.47
2019-05-28T06:04:36.611Z,17.49
2019-05-28T06:07:05.402Z,17.18
2019-05-28T06:09:34.236Z,17.20
2019-05-28T06:12:02.865Z,17.36
2019-05-28T06:14:31.443Z,17.44
2019-05-28T06:17:00.492Z,17.47
2019-05-28T06:19:29.295Z,17.10
2019-05-28T06:21:57.853Z,17.38
2019-05-28T06:24:26.428Z,16.10
2019-05-28T06:26:54.967Z,15.21
2019-05-28T06:29:23.774Z,15.96
2019-05-28T06:31:52.627Z,15.95
2019-05-28T06:34:21.153Z,16.08
2019-05-28T06:36:50.119Z,16.65
2019-05-28T06:39:18.637Z,17.27
2019-05-28T06:41:47.158Z,17.76
2019-05-28T06:44:15.670Z,17.35
2019-05-28T06:46:44.222Z,17.70
2019-05-28T06:49:12.721Z,17.18
2019-05-28T06:51:41.239Z,16.94
2019-05-28T06:54:11.933Z,17.52
2019-05-28T06:56:40.026Z,17.97
2019-05-28T06:59:08.669Z,18.10
2019-05-28T07:01:37.170Z,18.17
2019-05-28T07:04:13.862Z,18.61
2019-05-28T07:06:36.166Z,18.72
2019-05-28T07:09:06.006Z,18.37
2019-05-28T07:11:34.593Z,17.98
2019-05-28T07:14:03.445Z,18.19
2019-05-28T07:16:31.974Z,17.90
2019-05-28T07:19:00.516Z,17.41
2019-05-28T07:21:29.117Z,17.71
2019-05-28T07:23:57.717Z,18.64
2019-05-28T07:26:26.508Z,19.14
2019-05-28T07:28:55.317Z,19.30
2019-05-28T07:31:23.831Z,19.40
2019-05-28T07:33:52.359Z,19.46
2019-05-28T07:36:20.864Z,19.41
2019-05-28T07:38:49.884Z,19.48
2019-05-28T07:41:18.460Z,19.47
2019-05-28T07:43:47.010Z,19.39
2019-05-28T07:46:15.548Z,19.22
2019-05-28T07:48:44.397Z,19.44
2019-05-28T07:51:13.138Z,19.66
2019-05-28T07:53:41.786Z,19.44
2019-05-28T07:56:10.949Z,19.43
2019-05-28T07:58:39.477Z,19.64
2019-05-28T08:01:08.258Z,20.18
2019-05-28T08:03:36.775Z,20.00
2019-05-28T08:06:05.286Z,19.76
2019-05-28T08:08:34.761Z,20.17
2019-05-28T08:11:03.400Z,20.15
2019-05-28T08:13:40.540Z,20.49
2019-05-28T08:16:17.615Z,20.50
2019-05-28T08:18:32.495Z,20.23
2019-05-28T08:21:01.030Z,20.56
2019-05-28T08:23:29.540Z,20.50
2019-05-28T08:26:01.668Z,20.13
2019-05-28T08:28:28.305Z,20.51
2019-05-28T08:31:14.061Z,20.91
2019-05-28T08:33:27.122Z,21.31
2019-05-28T08:35:55.676Z,21.75
2019-05-28T08:38:24.292Z,21.92
2019-05-28T08:40:52.808Z,22.06
2019-05-28T08:43:21.331Z,22.64
2019-05-28T08:45:49.847Z,23.47
2019-05-28T08:48:18.902Z,24.15
2019-05-28T08:50:47.415Z,23.56
2019-05-28T08:53:15.914Z,23.91
2019-05-28T08:55:44.686Z,24.95
2019-05-28T08:58:13.329Z,24.74
2019-05-28T09:00:42.356Z,24.24
2019-05-28T09:03:10.869Z,25.07
2019-05-28T09:05:39.407Z,25.98
2019-05-28T09:08:07.921Z,25.80
2019-05-28T09:10:36.451Z,25.03
2019-05-28T09:13:05.447Z,24.03
2019-05-28T09:15:34.420Z,23.66
2019-05-28T09:18:03.498Z,26.54
2019-05-28T09:20:32.285Z,28.43
2019-05-28T09:23:00.772Z,29.28
2019-05-28T09:25:29.555Z,28.56
2019-05-28T09:27:58.076Z,28.22
2019-05-28T09:30:26.671Z,29.32
2019-05-28T09:32:55.328Z,28.98
2019-05-28T09:35:24.158Z,27.92
2019-05-28T09:37:52.685Z,25.83
2019-05-28T09:40:21.281Z,26.07
2019-05-28T09:42:49.921Z,27.46
2019-05-28T09:45:22.995Z,29.47
2019-05-28T09:47:48.924Z,30.92
2019-05-28T09:50:29.786Z,32.24
2019-05-28T09:52:54.648Z,33.80
2019-05-28T09:55:18.448Z,34.36
2019-05-28T09:57:48.159Z,34.70
2019-05-28T10:00:20.618Z,35.50
2019-05-28T10:02:49.484Z,36.16
2019-05-28T10:05:18.054Z,36.47
2019-05-28T10:07:46.561Z,37.43
2019-05-28T10:10:15.540Z,37.87
2019-05-28T10:12:44.187Z,39.16
2019-05-28T10:15:12.812Z,39.63
2019-05-28T10:17:41.447Z,35.08
2019-05-28T10:20:11.757Z,35.80
2019-05-28T10:22:40.271Z,37.11
2019-05-28T10:25:08.860Z,37.91
2019-05-28T10:27:37.500Z,38.56
2019-05-28T10:30:06.199Z,37.53
2019-05-28T10:32:34.989Z,35.33
2019-05-28T10:35:04.489Z,37.39
2019-05-28T10:37:33.142Z,37.92
2019-05-28T10:40:01.654Z,36.07
2019-05-28T10:42:37.496Z,32.65
2019-05-28T10:45:07.065Z,33.20
2019-05-28T10:47:35.875Z,32.37
2019-05-28T10:50:04.836Z,31.79
2019-05-28T10:52:33.413Z,30.58
2019-05-28T10:55:02.921Z,29.07
2019-05-28T10:57:31.473Z,28.45
2019-05-28T11:00:00.266Z,28.23
2019-05-28T11:02:29.097Z,28.40
2019-05-28T11:04:57.629Z,28.32
2019-05-28T11:07:26.195Z,28.73
2019-05-28T11:09:54.747Z,28.69
2019-05-28T11:12:23.641Z,27.96
2019-05-28T11:14:52.145Z,27.64
2019-05-28T11:17:20.989Z,27.56
2019-05-28T11:19:49.521Z,27.34
2019-05-28T11:22:18.012Z,27.41
2019-05-28T11:24:46.567Z,26.75
2019-05-28T11:27:15.616Z,26.56
2019-05-28T11:29:44.123Z,26.39
2019-05-28T11:32:12.727Z,26.26
2019-05-28T11:34:41.275Z,26.45
2019-05-28T11:37:10.367Z,26.97
2019-05-28T11:39:38.894Z,27.21
2019-05-28T11:42:07.537Z,27.84
2019-05-28T11:44:36.049Z,27.93
2019-05-28T11:47:04.563Z,26.72
2019-05-28T11:49:33.072Z,25.88
2019-05-28T11:52:01.674Z,26.04
2019-05-28T11:54:30.229Z,26.34
2019-05-28T11:56:58.738Z,26.02
2019-05-28T11:59:27.302Z,26.09
2019-05-28T12:01:55.835Z,26.68
2019-05-28T12:04:24.457Z,26.77
2019-05-28T12:06:52.995Z,26.90
2019-05-28T12:09:21.730Z,27.33
2019-05-28T12:11:50.259Z,27.54
2019-05-28T12:14:18.858Z,27.52
2019-05-28T12:16:47.415Z,27.52
2019-05-28T12:19:15.919Z,27.72
2019-05-28T12:21:44.514Z,27.40
2019-05-28T12:24:13.360Z,27.22
2019-05-28T12:26:41.962Z,27.46
2019-05-28T12:29:10.559Z,27.40
2019-05-28T12:31:39.081Z,27.27
2019-05-28T12:34:07.731Z,27.76
2019-05-28T12:36:36.269Z,27.85
2019-05-28T12:39:07.560Z,27.95
2019-05-28T12:41:36.063Z,28.09
2019-05-28T12:44:05.038Z,27.76
2019-05-28T12:46:33.607Z,27.54
2019-05-28T12:49:02.213Z,27.33
2019-05-28T12:51:31.101Z,27.23
2019-05-28T12:53:59.931Z,27.29
2019-05-28T12:56:28.473Z,27.05
2019-05-28T12:58:57.003Z,26.63
2019-05-28T13:01:25.567Z,26.62
2019-05-28T13:03:54.401Z,26.54
2019-05-28T13:06:23.013Z,25.97
2019-05-28T13:08:51.594Z,25.84
2019-05-28T13:11:20.100Z,25.93
2019-05-28T13:13:48.858Z,26.21
2019-05-28T13:16:17.421Z,25.52
2019-05-28T13:18:46.027Z,24.98
2019-05-28T13:21:14.600Z,24.97
2019-05-28T13:23:43.137Z,24.73
2019-05-28T13:26:14.517Z,24.43
2019-05-28T13:28:41.916Z,23.99
2019-05-28T13:31:10.473Z,23.90
2019-05-28T13:33:40.421Z,24.07
2019-05-28T13:36:09.176Z,24.28
2019-05-28T13:38:37.977Z,24.35
2019-05-28T13:41:06.560Z,24.32
2019-05-28T13:43:35.154Z,24.21
2019-05-28T13:46:03.633Z,23.99
2019-05-28T13:48:32.194Z,24.03
2019-05-28T13:51:00.696Z,23.89
2019-05-28T13:53:29.469Z,23.93
2019-05-28T13:55:58.078Z,23.92
2019-05-28T13:58:26.735Z,23.96
2019-05-28T14:00:55.231Z,23.86
2019-05-28T14:03:23.794Z,24.00
2019-05-28T14:05:52.373Z,24.27
2019-05-28T14:08:21.342Z,24.01
2019-05-28T14:10:49.882Z,24.02
2019-05-28T14:13:18.477Z,24.25
2019-05-28T14:15:47.038Z,24.70
2019-05-28T14:18:15.823Z,25.39
2019-05-28T14:20:44.379Z,25.91
2019-05-28T14:23:12.990Z,25.45
2019-05-28T14:25:41.566Z,24.84
2019-05-28T14:28:10.157Z,24.58
2019-05-28T14:30:38.726Z,24.61
2019-05-28T14:33:07.285Z,25.00
2019-05-28T14:35:35.819Z,25.07
2019-05-28T14:38:04.424Z,25.01
2019-05-28T14:40:33.563Z,24.60
2019-05-28T14:43:02.459Z,24.46
2019-05-28T14:45:30.977Z,23.88
2019-05-28T14:47:59.548Z,23.98
2019-05-28T14:50:28.160Z,23.42
2019-05-28T14:52:56.697Z,23.12
2019-05-28T14:55:25.306Z,23.22
2019-05-28T14:57:53.858Z,23.73
2019-05-28T15:00:23.176Z,24.25
2019-05-28T15:02:51.648Z,24.39
2019-05-28T15:05:20.150Z,24.70
2019-05-28T15:07:49.084Z,24.48
2019-05-28T15:10:17.685Z,24.61
2019-05-28T15:12:46.467Z,24.44
2019-05-28T15:15:15.032Z,24.60
2019-05-28T15:17:43.564Z,24.63
2019-05-28T15:20:12.256Z,24.88
2019-05-28T15:22:40.755Z,25.02
2019-05-28T15:25:09.884Z,24.97
2019-05-28T15:27:38.422Z,24.45
2019-05-28T15:30:07.200Z,24.46
2019-05-28T15:32:35.822Z,24.32
2019-05-28T15:35:04.863Z,24.51
2019-05-28T15:37:33.355Z,24.76
2019-05-28T15:40:01.845Z,25.03
2019-05-28T15:42:30.422Z,24.97
2019-05-28T15:44:58.991Z,24.96
2019-05-28T15:47:27.537Z,24.75
2019-05-28T15:49:56.024Z,25.06
2019-05-28T15:52:24.743Z,25.12
2019-05-28T15:54:53.219Z,25.33
2019-05-28T15:57:21.734Z,25.41
2019-05-28T15:59:50.541Z,25.80
2019-05-28T16:02:19.048Z,26.32
2019-05-28T16:04:47.537Z,26.02
2019-05-28T16:07:16.315Z,25.67
2019-05-28T16:09:55.691Z,26.28
2019-05-28T16:12:15.095Z,25.71
2019-05-28T16:14:43.647Z,25.52
2019-05-28T16:17:12.271Z,25.35
2019-05-28T16:19:40.806Z,24.89
2019-05-28T16:22:09.407Z,24.62
2019-05-28T16:24:37.899Z,24.14
2019-05-28T16:27:06.460Z,24.00
2019-05-28T16:29:34.960Z,23.96
2019-05-28T16:32:03.463Z,24.01
2019-05-28T16:34:31.951Z,23.79
2019-05-28T16:37:00.474Z,24.05
2019-05-28T16:39:29.025Z,23.84
2019-05-28T16:41:57.520Z,23.79
2019-05-28T16:44:26.023Z,24.00
2019-05-28T16:47:14.878Z,24.34
2019-05-28T16:49:24.729Z,24.62
2019-05-28T16:51:53.224Z,24.64
2019-05-28T16:54:21.719Z,24.76
2019-05-28T16:56:50.244Z,24.81
2019-05-28T16:59:18.736Z,24.43
2019-05-28T17:01:47.232Z,23.60
2019-05-28T17:04:15.736Z,22.90
2019-05-28T17:06:44.233Z,23.06
2019-05-28T17:09:12.756Z,22.78
2019-05-28T17:11:41.309Z,22.61
2019-05-28T17:14:09.878Z,22.48
2019-05-28T17:16:38.351Z,22.38
2019-05-28T17:19:07.192Z,22.07
2019-05-28T17:21:35.996Z,21.78
2019-05-28T17:24:04.499Z,21.75
2019-05-28T17:26:33.184Z,21.74
2019-05-28T17:29:01.689Z,21.83
2019-05-28T17:31:30.194Z,21.93
2019-05-28T17:33:58.698Z,21.88
2019-05-28T17:36:27.252Z,21.89
2019-05-28T17:38:55.763Z,21.94
2019-05-28T17:41:24.575Z,21.82
2019-05-28T17:43:53.158Z,21.79
2019-05-28T17:46:21.911Z,21.57
2019-05-28T17:48:50.418Z,21.66
2019-05-28T17:51:18.916Z,21.67
2019-05-28T17:53:47.499Z,21.38
2019-05-28T17:56:15.999Z,21.17
2019-05-28T17:58:44.512Z,20.77
2019-05-28T18:01:13.010Z,20.74
2019-05-28T18:03:41.525Z,20.71
2019-05-28T18:06:10.024Z,20.58
2019-05-28T18:08:38.537Z,20.41
2019-05-28T18:11:07.037Z,20.46
2019-05-28T18:13:35.557Z,20.61
2019-05-28T18:16:04.143Z,20.84
2019-05-28T18:18:32.642Z,20.91
2019-05-28T18:21:01.144Z,20.78
2019-05-28T18:23:29.663Z,20.95
2019-05-28T18:25:58.174Z,21.08
2019-05-28T18:28:26.718Z,21.05
2019-05-28T18:30:57.347Z,20.98
2019-05-28T18:33:25.487Z,21.02
2019-05-28T18:35:54.028Z,21.26
2019-05-28T18:38:22.617Z,21.19
2019-05-28T18:40:51.112Z,21.09
2019-05-28T18:43:19.630Z,20.79
2019-05-28T18:45:48.136Z,20.68
2019-05-28T18:48:16.953Z,20.57
2019-05-28T18:50:46.125Z,20.38
2019-05-28T18:53:14.876Z,20.08
2019-05-28T18:55:43.437Z,19.66
2019-05-28T18:58:12.022Z,19.66
2019-05-28T19:00:40.776Z,19.70
2019-05-28T19:03:09.276Z,19.69
2019-05-28T19:05:38.182Z,19.68
2019-05-28T19:08:06.685Z,19.85
2019-05-28T19:10:35.232Z,19.81
2019-05-28T19:13:03.816Z,19.69
2019-05-28T19:15:32.314Z,19.79
2019-05-28T19:18:01.169Z,19.72
2019-05-28T19:20:29.690Z,19.66
2019-05-28T19:22:58.207Z,19.53
2019-05-28T19:25:26.863Z,19.56
2019-05-28T19:27:55.404Z,19.46
2019-05-28T19:30:34.015Z,19.48
2019-05-28T19:33:03.505Z,19.29
2019-05-28T19:35:32.066Z,19.04
2019-05-28T19:38:00.607Z,19.08
2019-05-28T19:40:38.864Z,19.15
2019-05-28T19:43:07.352Z,19.20
2019-05-28T19:45:36.545Z,19.15
2019-05-28T19:48:05.488Z,19.05
2019-05-28T19:50:34.078Z,18.94
2019-05-28T19:53:02.581Z,18.86
2019-05-28T19:55:31.290Z,18.80
2019-05-28T19:57:59.833Z,18.78
2019-05-28T20:00:28.398Z,18.66
2019-05-28T20:02:56.912Z,18.46
2019-05-28T20:05:25.767Z,18.17
2019-05-28T20:07:54.280Z,18.13
2019-05-28T20:10:23.139Z,18.08
2019-05-28T20:12:51.642Z,18.08
2019-05-28T20:15:22.863Z,18.01
2019-05-28T20:17:50.442Z,18.16
2019-05-28T20:20:19.061Z,18.20
2019-05-28T20:22:47.879Z,18.19
2019-05-28T20:25:17.077Z,18.08
2019-05-28T20:27:45.802Z,18.22
2019-05-28T20:30:14.498Z,18.14
2019-05-28T20:32:43.085Z,18.11
2019-05-28T20:35:11.799Z,18.25
2019-05-28T20:37:40.349Z,18.13
2019-05-28T20:40:10.047Z,18.12
2019-05-28T20:42:38.752Z,18.13
2019-05-28T20:45:08.610Z,18.21
2019-05-28T20:47:37.100Z,18.20
2019-05-28T20:50:07.495Z,18.14
2019-05-28T20:52:36.140Z,17.98
2019-05-28T20:55:05.193Z,17.68
2019-05-28T20:57:33.716Z,17.71
2019-05-28T21:00:02.309Z,17.70
2019-05-28T21:02:31.150Z,17.59
2019-05-28T21:04:59.772Z,17.58
2019-05-28T21:07:28.289Z,17.51
2019-05-28T21:09:57.165Z,17.36
2019-05-28T21:12:25.668Z,17.34
2019-05-28T21:14:54.860Z,17.60
2019-05-28T21:17:23.341Z,17.83
2019-05-28T21:19:51.832Z,17.76
2019-05-28T21:22:26.685Z,17.68
2019-05-28T21:24:51.978Z,17.68
2019-05-28T21:27:20.549Z,17.74
2019-05-28T21:29:49.966Z,17.76
2019-05-28T21:32:18.786Z,17.71
2019-05-28T21:34:47.581Z,17.76
2019-05-28T21:37:16.210Z,17.43
2019-05-28T21:39:44.754Z,17.52
2019-05-28T21:42:13.507Z,17.64
2019-05-28T21:44:42.072Z,17.67
2019-05-28T21:47:10.642Z,17.71
2019-05-28T21:49:39.221Z,17.51
2019-05-28T21:52:07.791Z,17.61
2019-05-28T21:54:36.348Z,17.74
2019-05-28T21:57:04.923Z,17.80
2019-05-28T21:59:34.889Z,17.64
2019-05-28T22:02:04.765Z,17.64
2019-05-28T22:04:33.440Z,17.26
2019-05-28T22:07:03.646Z,17.11
2019-05-28T22:09:32.264Z,17.29
2019-05-28T22:12:03.014Z,17.48
2019-05-28T22:14:31.252Z,17.55
2019-05-28T22:17:02.258Z,17.42
2019-05-28T22:19:30.329Z,17.27
2019-05-28T22:22:00.385Z,17.40
2019-05-28T22:24:29.137Z,17.57
2019-05-28T22:26:58.424Z,17.60
2019-05-28T22:29:27.016Z,17.68
2019-05-28T22:31:56.671Z,17.76
2019-05-28T22:34:25.242Z,17.85
2019-05-28T22:36:54.011Z,17.27
2019-05-28T22:39:22.846Z,17.17
2019-05-28T22:41:51.503Z,17.21
2019-05-28T22:44:20.095Z,17.29
2019-05-28T22:46:48.655Z,17.34
2019-05-28T22:49:17.320Z,17.57
2019-05-28T22:51:46.327Z,17.59
2019-05-28T22:54:14.923Z,17.57
2019-05-28T22:56:43.466Z,17.49
2019-05-28T22:59:12.326Z,17.37
2019-05-28T23:01:41.003Z,17.19
2019-05-28T23:04:09.664Z,17.38
2019-05-28T23:06:38.284Z,17.28
2019-05-28T23:09:07.852Z,17.31
2019-05-28T23:11:36.408Z,17.35
2019-05-28T23:14:06.032Z,17.35
2019-05-28T23:16:34.598Z,17.39
2019-05-28T23:19:04.383Z,17.25
2019-05-28T23:21:33.057Z,17.18
2019-05-28T23:24:01.614Z,17.10
2019-05-28T23:26:30.222Z,16.80
2019-05-28T23:28:58.895Z,16.83
2019-05-28T23:31:27.488Z,16.85
2019-05-28T23:33:56.093Z,16.82
2019-05-28T23:36:24.791Z,16.98
2019-05-28T23:38:53.649Z,16.91
2019-05-28T23:41:22.353Z,16.85
2019-05-28T23:44:01.418Z,16.80
2019-05-28T23:46:22.080Z,16.94
2019-05-28T23:48:50.722Z,16.86
2019-05-28T23:51:19.838Z,16.51
2019-05-28T23:53:48.480Z,16.66
2019-05-28T23:56:18.004Z,16.53
2019-05-28T23:58:46.590Z,16.75
